Terminal Aerodrome Forecast
Issued by NWS Glasgow, MT

Current Version | Previous Version | Text Only | Print | Product List | Glossary On
Versions: 1 2 3 4 5 6 7 8 9 10 11 12 13 14 15 16 17 18 19
000
FTUS45 KGGW 300500
TAFGGW
TAF
KGGW 300520Z 3006/0106 11013KT P6SM BKN015 OVC040
     FM300800 11009KT P6SM OVC015
     FM301300 14006KT P6SM OVC040
     FM302000 27007KT P6SM BKN040=

USA.gov is the U.S. government's official web portal to all federal, state and local government web resources and services.